Time;durP1;ratioP1;P1;durP2;ratioP2;P2;SDS_P1;SDS_P2;PMS_P1;PMS_P2;Temp;Humidity;BMP_temperature;BMP_pressure;BME280_temperature;BME280_humidity;BME280_pressure;Samples;Min_cycle;Max_cycle;Signal;HPM_P1;HPM_P2
2022/10/12 00:01:39;;;;;;;15.57;5.60;;;;;;;14.83;65.60;101792.50;6276987;22;20050;-63
2022/10/12 00:04:06;;;;;;;14.57;5.75;;;;;;;14.89;65.55;101799.56;6248821;22;20015;-65
2022/10/12 00:06:33;;;;;;;19.42;5.47;;;;;;;14.74;65.87;101799.94;6275276;22;20015;-63
2022/10/12 00:09:01;;;;;;;14.52;5.70;;;;;;;14.82;66.60;101804.72;6277610;22;20034;-63
2022/10/12 00:11:28;;;;;;;14.27;5.47;;;;;;;14.79;65.96;101803.41;6275984;22;20019;-64
2022/10/12 00:13:56;;;;;;;14.45;4.78;;;;;;;14.82;66.28;101801.97;6276921;22;20030;-63
2022/10/12 00:16:25;;;;;;;14.00;5.65;;;;;;;14.82;65.89;101796.41;6275767;22;20023;-63
2022/10/12 00:18:54;;;;;;;12.88;4.82;;;;;;;14.68;65.36;101800.06;6250153;22;20130;-65
2022/10/12 00:21:22;;;;;;;13.23;5.07;;;;;;;14.32;66.30;101803.97;6250227;22;20460;-65
2022/10/12 00:23:49;;;;;;;14.23;5.55;;;;;;;14.51;67.18;101793.53;6250176;22;20023;-65
2022/10/12 00:26:22;;;;;;;13.32;5.10;;;;;;;14.57;66.87;101793.09;6275758;22;20020;-63
2022/10/12 00:28:57;;;;;;;12.52;5.18;;;;;;;14.44;67.52;101802.31;6199185;22;20019;-64
2022/10/12 00:31:26;;;;;;;15.50;5.15;;;;;;;14.53;67.31;101799.59;6248344;22;20026;-64
2022/10/12 00:33:53;;;;;;;14.07;5.03;;;;;;;14.31;67.84;101802.34;6250362;22;20031;-64
2022/10/12 00:36:26;;;;;;;10.90;4.55;;;;;;;14.48;67.63;101797.78;6276397;22;20020;-65
2022/10/12 00:38:55;;;;;;;13.77;4.97;;;;;;;14.55;67.75;101802.88;6276371;22;20494;-65
2022/10/12 00:41:26;;;;;;;17.40;4.97;;;;;;;14.55;67.28;101797.34;6276260;22;20074;-63
2022/10/12 00:43:54;;;;;;;16.63;5.30;;;;;;;14.59;67.11;101792.81;6275292;22;20026;-65
2022/10/12 00:46:38;;;;;;;13.70;4.47;;;;;;;14.60;67.23;101794.44;6246178;22;20076;-64
2022/10/12 00:49:15;;;;;;;13.18;4.97;;;;;;;14.59;67.72;101799.16;6248370;22;20031;-64
2022/10/12 00:51:45;;;;;;;13.50;4.72;;;;;;;14.64;67.15;101795.47;6273235;22;20015;-64
2022/10/12 00:54:14;;;;;;;;;;;;;;;14.52;67.11;101796.00;6248269;22;20020;-64
2022/10/12 00:56:43;;;;;;;14.70;4.55;;;;;;;14.54;67.49;101799.28;6275403;22;19963;-64
2022/10/12 00:59:14;;;;;;;12.85;4.85;;;;;;;14.46;66.25;101802.81;6247908;22;20025;-64
2022/10/12 01:01:42;;;;;;;10.25;4.57;;;;;;;14.41;66.30;101793.78;6248395;22;20022;-63
2022/10/12 01:04:09;;;;;;;12.65;4.50;;;;;;;14.37;66.77;101798.31;6223902;22;20344;-67
2022/10/12 01:06:36;;;;;;;14.48;4.35;;;;;;;14.39;67.42;101798.81;6221889;22;20019;-64
2022/10/12 01:09:04;;;;;;;15.30;4.38;;;;;;;14.21;67.36;101800.59;6224241;22;20034;-64
2022/10/12 01:11:31;;;;;;;15.57;5.40;;;;;;;14.26;68.12;101796.94;6274768;22;20023;-64
2022/10/12 01:13:58;;;;;;;14.55;5.07;;;;;;;14.17;67.48;101790.44;6247453;22;20015;-63
2022/10/12 01:16:36;;;;;;;11.20;4.45;;;;;;;14.26;68.25;101788.63;6271932;22;20016;-63
2022/10/12 01:19:22;;;;;;;17.70;4.47;;;;;;;14.33;68.21;101791.78;6275343;22;20030;-63
2022/10/12 01:21:58;;;;;;;13.93;4.78;;;;;;;14.03;67.68;101790.47;6247460;22;20024;-64
2022/10/12 01:24:47;;;;;;;17.20;5.07;;;;;;;14.16;68.69;101791.56;6249355;22;20020;-63
2022/10/12 01:27:39;;;;;;;13.00;4.60;;;;;;;14.06;67.73;101789.03;6247583;22;20024;-63
2022/10/12 01:30:29;;;;;;;13.13;4.30;;;;;;;14.18;69.54;101786.53;6285098;22;20016;-65
2022/10/12 01:33:03;;;;;;;15.15;5.35;;;;;;;14.22;68.43;101784.78;6222996;22;20352;-64
2022/10/12 01:35:36;;;;;;;14.50;4.25;;;;;;;14.18;68.53;101779.03;6275043;22;20440;-64
2022/10/12 01:38:25;;;;;;;12.15;4.43;;;;;;;14.25;68.47;101789.69;6275306;22;20038;-64
2022/10/12 01:41:04;;;;;;;14.32;4.43;;;;;;;14.27;68.22;101787.47;6274926;22;20019;-64
2022/10/12 01:43:37;;;;;;;11.87;4.30;;;;;;;14.27;68.44;101784.69;6222684;22;1223181;-64
2022/10/12 01:46:13;;;;;;;12.52;4.60;;;;;;;14.33;69.01;101777.91;6246980;22;20035;-65
2022/10/12 01:48:42;;;;;;;17.08;5.10;;;;;;;14.33;68.32;101777.91;6276780;22;20016;-64
2022/10/12 01:51:11;;;;;;;9.27;4.05;;;;;;;14.37;68.82;101776.13;6248434;22;20032;-65
2022/10/12 01:53:49;;;;;;;12.57;4.03;;;;;;;14.31;68.12;101780.19;6249586;22;20016;-64
2022/10/12 01:56:19;;;;;;;14.65;4.30;;;;;;;14.13;66.94;101781.09;6273624;22;20026;-64
2022/10/12 01:58:46;;;;;;;;;;;;;;;14.12;68.94;101785.03;6248813;22;20015;-63
2022/10/12 02:01:19;;;;;;;12.43;4.20;;;;;;;14.21;69.42;101783.16;6275789;22;20014;-64
2022/10/12 02:03:52;;;;;;;12.25;4.13;;;;;;;14.20;68.81;101784.28;6276470;22;20012;-64
2022/10/12 02:06:22;;;;;;;14.70;3.85;;;;;;;14.22;68.69;101774.53;6249158;22;20339;-64
2022/10/12 02:09:04;;;;;;;13.75;4.28;;;;;;;14.22;67.73;101773.69;6250077;22;20023;-64
2022/10/12 02:11:33;;;;;;;10.70;3.60;;;;;;;14.20;68.69;101770.41;6274691;22;20015;-64
2022/10/12 02:14:12;;;;;;;11.27;4.00;;;;;;;14.24;69.33;101774.22;6249523;22;20438;-64
2022/10/12 02:16:48;;;;;;;11.18;4.10;;;;;;;14.23;69.00;101772.56;6248981;22;20020;-64
2022/10/12 02:19:20;;;;;;;11.57;4.13;;;;;;;14.21;68.22;101772.88;6250024;22;20016;-64
2022/10/12 02:21:47;;;;;;;12.02;3.75;;;;;;;13.93;68.99;101771.28;6276498;22;20020;-63
2022/10/12 02:24:17;;;;;;;16.48;4.53;;;;;;;14.07;69.47;101766.53;6276897;22;20026;-63
2022/10/12 02:26:46;;;;;;;14.37;3.83;;;;;;;13.98;70.17;101768.41;6248998;22;20020;-64
2022/10/12 02:29:23;;;;;;;11.55;4.15;;;;;;;14.02;69.91;101765.81;6250950;22;20027;-64
2022/10/12 02:32:12;;;;;;;11.50;3.67;;;;;;;14.03;70.09;101756.41;6278268;22;20024;-63
2022/10/12 02:35:04;;;;;;;10.77;4.35;;;;;;;14.05;69.30;101745.84;6225354;22;20011;-63
2022/10/12 02:37:43;;;;;;;11.45;3.92;;;;;;;14.05;69.99;101752.19;6249493;22;20020;-64
2022/10/12 02:40:25;;;;;;;11.10;4.07;;;;;;;14.00;69.68;101735.66;6261189;22;20011;-64
2022/10/12 02:42:56;;;;;;;10.20;3.85;;;;;;;14.00;70.03;101752.28;6235286;22;20011;-64
2022/10/12 02:45:41;;;;;;;11.77;3.95;;;;;;;14.05;70.26;101740.28;6276458;22;20027;-64
2022/10/12 02:48:11;;;;;;;14.25;4.00;;;;;;;13.98;69.62;101737.13;6250363;22;20016;-64
2022/10/12 02:50:38;;;;;;;12.20;3.70;;;;;;;13.99;69.84;101736.00;6277803;22;20087;-64
2022/10/12 02:53:06;;;;;;;15.82;4.10;;;;;;;14.06;70.27;101739.16;6250916;22;20018;-63
2022/10/12 02:55:39;;;;;;;11.73;4.60;;;;;;;14.02;69.65;101736.19;6276980;22;20047;-65
2022/10/12 02:58:06;;;;;;;8.73;3.92;;;;;;;13.94;69.64;101738.88;6225479;22;20019;-65
2022/10/12 03:00:33;;;;;;;10.23;4.28;;;;;;;13.75;70.39;101739.03;6276759;22;20020;-65
2022/10/12 03:03:01;;;;;;;11.77;3.83;;;;;;;13.88;71.06;101737.38;6278250;22;20027;-65
2022/10/12 03:05:28;;;;;;;10.10;4.20;;;;;;;13.79;69.62;101736.44;6277606;22;20475;-64
2022/10/12 03:07:55;;;;;;;14.63;4.30;;;;;;;13.86;70.54;101736.84;6278030;22;20019;-65
2022/10/12 03:10:23;;;;;;;11.68;4.20;;;;;;;13.82;69.66;101736.66;6277717;22;20015;-65
2022/10/12 03:12:50;;;;;;;13.23;3.55;;;;;;;13.43;69.94;101737.19;6277360;22;20258;-65
2022/10/12 03:15:18;;;;;;;12.00;4.10;;;;;;;13.49;70.29;101733.19;6277780;22;20475;-65
2022/10/12 03:17:45;;;;;;;14.38;3.80;;;;;;;13.52;70.69;101729.81;6278525;22;20456;-65
2022/10/12 03:20:12;;;;;;;11.65;4.05;;;;;;;13.57;70.96;101735.25;6250747;22;20420;-65
2022/10/12 03:22:39;;;;;;;13.55;4.35;;;;;;;13.65;71.21;101733.69;6251770;22;20023;-65
2022/10/12 03:25:07;;;;;;;9.68;3.65;;;;;;;13.70;70.62;101732.78;6223704;22;20137;-65
2022/10/12 03:27:34;;;;;;;15.60;4.75;;;;;;;13.68;70.95;101732.25;6251106;22;20015;-65
2022/10/12 03:30:02;;;;;;;15.02;4.25;;;;;;;13.80;70.50;101732.53;6276606;22;20019;-63
2022/10/12 03:32:31;;;;;;;12.70;3.70;;;;;;;13.77;70.23;101735.94;6277819;22;20015;-63
2022/10/12 03:34:58;;;;;;;9.30;3.70;;;;;;;13.73;70.52;101730.19;6250528;22;20332;-64
2022/10/12 03:37:25;;;;;;;12.57;4.00;;;;;;;13.67;70.51;101731.41;6276653;22;20015;-64
2022/10/12 03:39:53;;;;;;;15.70;4.30;;;;;;;13.49;70.66;101729.63;6250423;22;20015;-63
2022/10/12 03:42:20;;;;;;;11.77;3.95;;;;;;;13.57;71.36;101729.72;6276404;22;20337;-64
2022/10/12 03:44:47;;;;;;;13.50;3.85;;;;;;;13.58;71.30;101734.09;6278437;22;20022;-64
2022/10/12 03:47:15;;;;;;;15.32;4.57;;;;;;;13.65;70.99;101735.66;6277511;22;20027;-64
2022/10/12 03:49:42;;;;;;;16.77;4.20;;;;;;;13.67;71.09;101723.13;6278328;22;20294;-65
2022/10/12 03:52:09;;;;;;;13.95;3.92;;;;;;;13.63;71.11;101733.19;6277666;22;20018;-65
2022/10/12 03:54:37;;;;;;;12.07;4.25;;;;;;;13.55;71.02;101740.25;6224094;22;20125;-65
2022/10/12 03:57:04;;;;;;;12.80;3.92;;;;;;;13.58;70.98;101731.34;6248257;22;20026;-62
2022/10/12 03:59:31;;;;;;;11.93;4.30;;;;;;;13.35;70.76;101732.34;6276431;22;20020;-63
2022/10/12 04:01:59;;;;;;;10.02;4.03;;;;;;;13.36;70.84;101735.94;6250127;22;20016;-65
2022/10/12 04:04:26;;;;;;;14.95;4.65;;;;;;;12.88;70.14;101738.25;6277854;22;20016;-65
2022/10/12 04:06:53;;;;;;;11.15;3.67;;;;;;;13.12;72.26;101730.63;6275986;22;20054;-63
2022/10/12 04:09:20;;;;;;;12.32;4.22;;;;;;;13.38;72.23;101728.16;6250034;22;20027;-64
2022/10/12 04:11:48;;;;;;;13.85;3.78;;;;;;;13.49;71.19;101732.38;6224479;22;20668;-62
2022/10/12 04:14:15;;;;;;;11.00;4.38;;;;;;;13.49;71.55;101733.19;6248913;22;20011;-64
2022/10/12 04:16:42;;;;;;;11.80;4.13;;;;;;;13.53;71.80;101733.38;6276474;22;20027;-63
2022/10/12 04:19:12;;;;;;;14.23;5.00;;;;;;;13.39;70.97;101738.09;6277019;22;20019;-63
2022/10/12 04:21:40;;;;;;;15.73;4.20;;;;;;;13.31;70.65;101731.34;6276906;22;20022;-64
2022/10/12 04:24:07;;;;;;;15.55;4.43;;;;;;;13.28;72.03;101739.44;6249662;22;20015;-64
2022/10/12 04:26:35;;;;;;;10.65;3.97;;;;;;;13.36;73.00;101739.56;6249857;22;20019;-64
2022/10/12 04:29:02;;;;;;;11.93;3.80;;;;;;;13.49;71.93;101741.47;6277189;22;20031;-64
2022/10/12 04:31:30;;;;;;;13.18;4.60;;;;;;;13.50;70.98;101743.13;6277290;22;20020;-64
2022/10/12 04:33:57;;;;;;;13.20;3.80;;;;;;;13.25;71.21;101753.91;6224116;22;20012;-64
2022/10/12 04:36:25;;;;;;;14.13;4.55;;;;;;;12.94;70.64;101761.91;6250234;22;20031;-62
2022/10/12 04:38:53;;;;;;;13.30;4.07;;;;;;;13.04;73.06;101758.97;6249665;22;20039;-64
2022/10/12 04:41:27;;;;;;;12.98;4.22;;;;;;;13.17;72.56;101757.34;6277216;22;20468;-64
2022/10/12 04:43:54;;;;;;;11.82;4.03;;;;;;;13.36;71.47;101750.63;6277477;22;20018;-63
2022/10/12 04:46:21;;;;;;;15.63;4.20;;;;;;;13.45;71.34;101743.25;6275437;22;20020;-64
2022/10/12 04:48:49;;;;;;;12.50;4.07;;;;;;;13.48;71.63;101739.84;6277828;22;20035;-64
2022/10/12 04:51:16;;;;;;;14.95;4.15;;;;;;;13.43;71.44;101752.97;6277431;22;20019;-64
2022/10/12 04:53:43;;;;;;;12.43;4.22;;;;;;;13.50;71.21;101745.91;6277621;22;20066;-64
2022/10/12 04:56:10;;;;;;;10.65;4.40;;;;;;;13.58;71.80;101739.63;6277639;22;20023;-64
2022/10/12 04:58:38;;;;;;;13.20;3.95;;;;;;;13.50;71.19;101745.06;6250662;22;20015;-64
2022/10/12 05:01:05;;;;;;;14.07;4.10;;;;;;;13.53;72.26;101738.91;6249965;22;20078;-64
2022/10/12 05:03:33;;;;;;;17.83;4.75;;;;;;;13.42;70.81;101740.28;6199508;22;20023;-64
2022/10/12 05:06:07;;;;;;;13.55;4.50;;;;;;;13.57;72.20;101729.72;6277761;22;20020;-64
2022/10/12 05:08:34;;;;;;;12.07;3.78;;;;;;;13.60;71.32;101733.00;6277398;22;20019;-65
2022/10/12 05:11:01;;;;;;;14.15;4.90;;;;;;;13.51;70.96;101736.47;6249892;22;20030;-64
2022/10/12 05:13:29;;;;;;;12.80;4.82;;;;;;;13.50;71.66;101734.00;6277063;22;20394;-63
2022/10/12 05:15:56;;;;;;;15.18;4.50;;;;;;;13.49;71.73;101732.38;6250036;22;20015;-64
2022/10/12 05:18:24;;;;;;;12.00;4.10;;;;;;;13.61;72.24;101737.38;6276863;22;20336;-64
2022/10/12 05:20:51;;;;;;;10.93;3.92;;;;;;;13.44;71.53;101735.25;6277634;22;20412;-64
2022/10/12 05:23:35;;;;;;;13.18;4.32;;;;;;;13.39;71.75;101738.94;6224897;22;20015;-66
2022/10/12 05:26:03;;;;;;;12.10;4.82;;;;;;;13.42;72.52;101732.78;6249928;22;20015;-64
2022/10/12 05:28:38;;;;;;;14.65;6.15;;;;;;;13.38;71.74;101744.78;6226670;22;20018;-63
2022/10/12 05:31:10;;;;;;;13.13;5.60;;;;;;;13.35;71.75;101746.19;6276317;22;20039;-65
2022/10/12 05:33:43;;;;;;;18.95;7.53;;;;;;;13.44;72.34;101749.88;6278761;22;20027;-64
2022/10/12 05:36:11;;;;;;;18.15;8.82;;;;;;;13.43;71.61;101745.50;6249936;22;20015;-64
2022/10/12 05:38:42;;;;;;;12.70;5.68;;;;;;;13.48;71.24;101750.94;6276326;22;20024;-64
2022/10/12 05:41:13;;;;;;;13.80;5.30;;;;;;;13.41;71.45;101750.50;6250177;22;20020;-65
2022/10/12 05:43:46;;;;;;;13.95;4.55;;;;;;;13.16;71.43;101748.22;6222987;22;20384;-65
2022/10/12 05:46:37;;;;;;;13.93;4.65;;;;;;;13.28;72.99;101743.03;6251193;22;20019;-65
2022/10/12 05:49:17;;;;;;;15.48;4.60;;;;;;;13.42;72.67;101748.56;6277577;22;20012;-66
2022/10/12 05:51:45;;;;;;;12.77;4.97;;;;;;;13.44;73.04;101749.88;6260786;22;20016;-64
2022/10/12 05:54:13;;;;;;;11.52;4.78;;;;;;;13.39;72.76;101741.69;6275375;22;20016;-63
2022/10/12 05:56:44;;;;;;;14.60;5.15;;;;;;;13.50;72.78;101742.31;6275344;22;20028;-63
2022/10/12 05:59:12;;;;;;;12.68;4.53;;;;;;;13.50;72.14;101737.59;6249500;22;20027;-65
2022/10/12 06:01:39;;;;;;;16.80;5.15;;;;;;;13.53;72.29;101731.44;6275505;22;20036;-61
2022/10/12 06:04:07;;;;;;;13.10;5.15;;;;;;;13.49;72.71;101733.19;6250793;22;20022;-61
2022/10/12 06:06:34;;;;;;;24.88;8.35;;;;;;;13.53;72.36;101748.06;6249315;22;20031;-61
2022/10/12 06:09:02;;;;;;;21.00;10.88;;;;;;;13.51;71.57;101749.50;6278112;22;20031;-61
2022/10/12 06:11:29;;;;;;;16.17;6.05;;;;;;;13.52;72.25;101740.88;6226781;22;20023;-61
2022/10/12 06:14:02;;;;;;;13.73;5.30;;;;;;;13.50;72.23;101739.53;6278174;22;20497;-59
2022/10/12 06:16:30;;;;;;;19.02;5.80;;;;;;;13.50;72.66;101743.13;6277900;22;20016;-59
2022/10/12 06:18:57;;;;;;;18.15;5.38;;;;;;;13.53;73.01;101742.50;6279149;22;20016;-60
2022/10/12 06:21:24;;;;;;;14.85;4.90;;;;;;;13.57;72.37;101743.56;6278834;22;20020;-61
2022/10/12 06:24:00;;;;;;;13.88;5.30;;;;;;;13.58;71.87;101742.41;6279491;22;20024;-59
2022/10/12 06:26:31;;;;;;;18.45;5.72;;;;;;;13.51;71.82;101755.03;6278072;22;20012;-62
2022/10/12 06:28:59;;;;;;;14.98;5.82;;;;;;;13.53;72.65;101748.06;6278786;22;20019;-60
2022/10/12 06:31:27;;;;;;;15.00;5.50;;;;;;;13.58;72.67;101759.00;6277333;22;20022;-60
2022/10/12 06:33:55;;;;;;;14.80;5.15;;;;;;;13.57;72.39;101762.09;6275125;22;20016;-60
2022/10/12 06:36:26;;;;;;;19.17;5.20;;;;;;;13.14;68.65;101767.09;6252351;22;20022;-65
2022/10/12 06:38:54;;;;;;;16.83;5.50;;;;;;;13.10;74.62;101771.59;6276688;22;20020;-64
2022/10/12 06:41:21;;;;;;;15.35;6.10;;;;;;;13.44;73.98;101769.25;6276088;22;20015;-66
2022/10/12 06:43:48;;;;;;;17.05;5.93;;;;;;;13.66;72.84;101770.50;6233948;22;20035;-66
2022/10/12 06:46:16;;;;;;;17.05;5.55;;;;;;;13.58;72.65;101775.63;6245680;23;20012;-65
2022/10/12 06:48:46;;;;;;;20.73;6.60;;;;;;;12.80;69.48;101782.31;6247286;23;20026;-66
2022/10/12 06:51:15;;;;;;;21.60;6.40;;;;;;;12.73;72.45;101781.88;6220498;23;20020;-65
2022/10/12 06:53:43;;;;;;;14.68;5.50;;;;;;;12.89;73.32;101780.50;6218028;23;20024;-66
2022/10/12 06:56:11;;;;;;;17.83;5.97;;;;;;;13.38;74.49;101777.97;6216795;23;20317;-64
2022/10/12 06:58:38;;;;;;;15.38;5.35;;;;;;;12.96;72.51;101781.78;6245638;23;20012;-71
2022/10/12 07:01:09;;;;;;;14.48;5.78;;;;;;;13.46;74.95;101778.09;6244322;23;20020;-61
2022/10/12 07:03:36;;;;;;;19.92;6.80;;;;;;;13.40;74.71;101786.81;6220937;23;20348;-60
2022/10/12 07:06:08;;;;;;;17.17;5.85;;;;;;;13.55;72.66;101790.09;6245367;23;20023;-61
2022/10/12 07:08:36;;;;;;;20.00;5.95;;;;;;;13.57;73.57;101782.31;6219841;23;20023;-61
2022/10/12 07:11:05;;;;;;;18.23;7.20;;;;;;;13.87;71.71;101782.78;6243063;23;20019;-61
2022/10/12 07:13:33;;;;;;;13.82;6.20;;;;;;;13.51;68.11;101777.19;6245604;23;20108;-61
2022/10/12 07:16:00;;;;;;;19.55;6.85;;;;;;;13.71;71.17;101776.75;6254572;23;20031;-61
2022/10/12 07:18:28;;;;;;;18.13;7.20;;;;;;;13.90;70.53;101787.69;6247839;23;20336;-61
2022/10/12 07:20:57;;;;;;;23.38;5.97;;;;;;;13.68;68.93;101790.41;6247555;23;20023;-61
2022/10/12 07:23:25;;;;;;;44.10;8.43;;;;;;;13.70;70.29;101782.59;6220360;23;20020;-61
2022/10/12 07:25:53;;;;;;;25.05;7.10;;;;;;;13.95;69.91;101782.88;6242636;23;20260;-61
2022/10/12 07:28:21;;;;;;;24.00;7.95;;;;;;;13.77;69.34;101794.09;6244247;23;20035;-61
2022/10/12 07:30:48;;;;;;;21.35;6.53;;;;;;;13.77;69.15;101794.91;6217605;23;20020;-61
2022/10/12 07:33:16;;;;;;;26.15;7.43;;;;;;;13.89;68.60;101794.38;6218636;23;20024;-60
2022/10/12 07:35:52;;;;;;;21.98;8.73;;;;;;;13.71;69.67;101800.84;6243460;23;20019;-61
2022/10/12 07:38:42;;;;;;;18.10;7.13;;;;;;;13.91;70.22;101804.03;6246125;23;20027;-61
2022/10/12 07:41:10;;;;;;;18.15;7.00;;;;;;;13.63;69.92;101802.41;6242503;23;20016;-61
2022/10/12 07:43:38;;;;;;;24.23;8.43;;;;;;;13.26;69.29;101808.09;6229801;22;20015;-61
2022/10/12 07:46:06;;;;;;;22.50;11.88;;;;;;;13.16;71.07;101811.84;6271498;22;20015;-61
2022/10/12 07:48:33;;;;;;;24.10;11.93;;;;;;;13.55;69.95;101805.88;6248656;22;20015;-61
2022/10/12 07:51:05;;;;;;;20.15;7.57;;;;;;;13.75;70.33;101801.88;6276993;22;20471;-61
2022/10/12 07:53:33;;;;;;;18.98;7.57;;;;;;;13.97;69.44;101813.88;6277260;22;20440;-61
2022/10/12 07:56:02;;;;;;;19.52;8.23;;;;;;;13.84;66.23;101809.19;6276796;22;20078;-61
2022/10/12 07:58:30;;;;;;;18.67;7.38;;;;;;;13.81;69.63;101815.31;6270900;22;20471;-62
2022/10/12 08:01:05;;;;;;;18.75;7.82;;;;;;;14.05;69.23;101815.09;6276413;22;20023;-61
2022/10/12 08:03:32;;;;;;;19.67;7.35;;;;;;;14.08;68.46;101815.28;6221449;22;20023;-61
2022/10/12 08:06:07;;;;;;;21.08;8.00;;;;;;;14.12;68.44;101810.75;6274629;22;20023;-60
2022/10/12 08:08:35;;;;;;;21.60;8.18;;;;;;;14.15;66.95;101817.63;6249793;22;20042;-61
2022/10/12 08:11:03;;;;;;;17.60;7.97;;;;;;;13.77;69.34;101827.31;6277350;22;20035;-60
2022/10/12 08:13:31;;;;;;;20.48;9.05;;;;;;;14.06;69.81;101825.03;6247109;22;20022;-62
2022/10/12 08:15:59;;;;;;;23.45;7.72;;;;;;;14.14;69.39;101827.09;6276269;22;20012;-61
2022/10/12 08:18:26;;;;;;;25.70;8.57;;;;;;;14.34;67.26;101832.22;6250561;22;20082;-61
2022/10/12 08:20:54;;;;;;;24.92;8.32;;;;;;;14.34;68.07;101818.34;6247046;22;20035;-60
2022/10/12 08:23:22;;;;;;;20.13;8.82;;;;;;;14.21;67.96;101819.19;6276661;22;20011;-62
2022/10/12 08:25:54;;;;;;;22.50;8.18;;;;;;;14.33;68.48;101816.72;6275842;22;20007;-60
2022/10/12 08:28:21;;;;;;;21.25;9.85;;;;;;;14.39;68.09;101815.47;6248128;22;20020;-61
2022/10/12 08:30:50;;;;;;;22.52;9.15;;;;;;;14.66;67.43;101820.94;6249799;22;20047;-61
2022/10/12 08:33:18;;;;;;;20.83;8.88;;;;;;;14.41;66.77;101816.78;6276457;22;20064;-62
2022/10/12 08:35:46;;;;;;;25.20;9.10;;;;;;;14.57;66.94;101814.50;6275662;22;20134;-61
2022/10/12 08:38:14;;;;;;;26.25;10.57;;;;;;;14.60;67.71;101820.22;6275777;22;20308;-61
2022/10/12 08:40:51;;;;;;;41.97;16.40;;;;;;;14.53;67.65;101819.84;6275234;22;20016;-62
2022/10/12 08:43:29;;;;;;;28.60;10.55;;;;;;;14.47;67.27;101832.16;6247520;22;20023;-60
2022/10/12 08:45:59;;;;;;;22.58;9.25;;;;;;;14.94;66.63;101825.19;6275752;22;20063;-60
2022/10/12 08:48:49;;;;;;;24.77;9.63;;;;;;;14.86;65.85;101820.41;6221109;22;20023;-61
2022/10/12 08:51:20;;;;;;;22.27;10.50;;;;;;;14.59;67.25;101817.78;6275343;22;20027;-61
2022/10/12 08:54:10;;;;;;;26.08;13.40;;;;;;;14.89;67.40;101818.97;6273709;22;20026;-60
2022/10/12 08:56:40;;;;;;;28.48;11.15;;;;;;;14.88;67.39;101831.19;6248032;22;20019;-62
2022/10/12 08:59:15;;;;;;;25.73;10.13;;;;;;;14.75;66.30;101826.53;6275748;22;20027;-61
2022/10/12 09:01:53;;;;;;;21.60;10.48;;;;;;;14.82;66.83;101835.25;6276232;22;20023;-61
2022/10/12 09:04:58;;;;;;;19.00;8.40;;;;;;;14.62;65.99;101833.78;6245970;22;20587;-61
2022/10/12 09:07:28;;;;;;;25.52;10.40;;;;;;;14.68;68.11;101825.00;6276167;22;20023;-60
2022/10/12 09:10:08;;;;;;;;;;;;;;;14.91;67.84;101819.47;6249735;22;20016;-61
2022/10/12 09:12:49;;;;;;;25.77;11.30;;;;;;;14.92;67.25;101821.13;6223232;22;19919;-61
2022/10/12 09:15:23;;;;;;;32.00;11.52;;;;;;;15.01;66.83;101819.22;6244934;22;20026;-61
2022/10/12 09:17:53;;;;;;;21.25;10.00;;;;;;;15.13;66.54;101813.91;6246824;22;20015;-61
2022/10/12 09:20:22;;;;;;;31.13;11.77;;;;;;;15.07;64.44;101821.56;6245842;22;20026;-62
2022/10/12 09:22:52;;;;;;;30.70;12.82;;;;;;;15.13;65.21;101816.69;6247786;22;20015;-62
2022/10/12 09:25:25;;;;;;;30.75;11.68;;;;;;;15.09;65.64;101813.72;6195210;22;20020;-61
2022/10/12 09:27:53;;;;;;;25.65;11.98;;;;;;;15.24;66.35;101813.31;6222013;22;20020;-61
2022/10/12 09:30:20;;;;;;;28.00;13.30;;;;;;;15.33;66.21;101810.59;6248230;22;20020;-61
2022/10/12 09:32:54;;;;;;;28.63;12.48;;;;;;;15.36;66.94;101804.41;6275219;22;20107;-64
2022/10/12 09:35:21;;;;;;;27.95;13.30;;;;;;;15.38;65.95;101813.22;6271888;22;20016;-61
2022/10/12 09:37:51;;;;;;;29.05;12.60;;;;;;;15.38;65.08;101804.91;6223454;22;20044;-61
2022/10/12 09:40:25;;;;;;;28.25;13.80;;;;;;;15.42;63.99;101803.16;6249280;22;20024;-60
2022/10/12 09:42:53;;;;;;;25.70;12.00;;;;;;;15.63;65.25;101801.47;6250306;22;20038;-60
2022/10/12 09:45:21;;;;;;;30.33;13.80;;;;;;;15.54;62.76;101800.59;6250015;22;20340;-61
2022/10/12 09:48:11;;;;;;;34.13;14.40;;;;;;;15.74;65.07;101795.28;6249488;22;20020;-62
2022/10/12 09:50:46;;;;;;;36.17;16.48;;;;;;;15.71;63.32;101784.81;6277169;22;20030;-61
2022/10/12 09:53:30;;;;;;;34.47;15.68;;;;;;;16.03;64.42;101788.34;6278076;22;20019;-60
2022/10/12 09:56:10;;;;;;;26.73;10.68;;;;;;;16.06;64.31;101782.13;6250551;22;20022;-59
2022/10/12 09:58:50;;;;;;;28.52;13.02;;;;;;;16.26;63.58;101789.84;6252830;22;20026;-60
2022/10/12 10:01:20;;;;;;;33.53;12.98;;;;;;;16.28;64.32;101784.78;6200291;22;20024;-60
2022/10/12 10:04:09;;;;;;;32.55;14.00;;;;;;;16.38;63.92;101787.25;6278008;22;20404;-60
2022/10/12 10:06:38;;;;;;;30.25;13.63;;;;;;;16.47;63.73;101786.13;6278447;22;20012;-60
2022/10/12 10:09:13;;;;;;;30.42;13.82;;;;;;;16.31;63.30;101786.91;6250988;22;20486;-60
2022/10/12 10:11:40;;;;;;;31.02;13.43;;;;;;;16.58;63.23;101775.50;6249037;22;20022;-61
2022/10/12 10:14:12;;;;;;;33.00;13.18;;;;;;;16.58;61.71;101770.75;6221125;22;20019;-60
2022/10/12 10:16:48;;;;;;;25.00;12.82;;;;;;;16.81;62.70;101771.38;6275320;22;20409;-63
2022/10/12 10:19:25;;;;;;;34.17;12.32;;;;;;;16.75;64.11;101772.72;6248678;22;20019;-61
2022/10/12 10:21:53;;;;;;;25.88;10.88;;;;;;;16.78;63.65;101770.09;6247748;22;20042;-60
2022/10/12 10:24:25;;;;;;;29.65;11.85;;;;;;;17.11;62.22;101770.34;6247364;22;20031;-61
2022/10/12 10:27:00;;;;;;;29.75;11.38;;;;;;;17.15;63.80;101764.91;6249548;22;20016;-60
2022/10/12 10:29:31;;;;;;;39.25;14.13;;;;;;;17.21;62.19;101769.19;6274871;22;20020;-61
2022/10/12 10:32:23;;;;;;;31.48;11.98;;;;;;;17.26;60.59;101760.63;6276484;22;20012;-61
2022/10/12 10:35:05;;;;;;;275.15;74.90;;;;;;;16.87;63.64;101761.72;6276986;22;20047;-64
2022/10/12 10:37:34;;;;;;;32.65;12.82;;;;;;;16.89;62.28;101767.78;6244744;22;20055;-65
2022/10/12 10:40:03;;;;;;;39.42;14.68;;;;;;;16.89;62.83;101763.00;6247796;22;20024;-66
2022/10/12 10:42:32;;;;;;;24.10;11.63;;;;;;;16.83;62.65;101769.91;6250616;22;20026;-66
2022/10/12 10:45:06;;;;;;;25.08;12.77;;;;;;;16.79;62.70;101762.53;6250616;22;20020;-65
2022/10/12 10:47:42;;;;;;;178.23;46.90;;;;;;;16.94;62.67;101759.25;6250877;22;20016;-65
2022/10/12 10:50:38;;;;;;;30.35;11.65;;;;;;;16.96;62.12;101756.97;6250951;22;20016;-66
2022/10/12 10:53:16;;;;;;;28.40;12.38;;;;;;;17.25;61.74;101756.19;6276967;22;20019;-65
2022/10/12 10:56:00;;;;;;;35.13;12.50;;;;;;;16.95;61.99;101758.09;6250196;22;20023;-67
2022/10/12 10:58:44;;;;;;;30.33;14.50;;;;;;;17.18;62.47;101756.72;6250190;22;20015;-64
2022/10/12 11:01:23;;;;;;;46.78;16.98;;;;;;;17.37;62.29;101764.66;6276447;22;20016;-64
2022/10/12 11:04:03;;;;;;;37.95;15.57;;;;;;;17.51;63.23;101757.78;6250134;22;20027;-65
2022/10/12 11:06:39;;;;;;;118.45;34.67;;;;;;;17.70;63.23;101758.16;6249257;22;20019;-64
2022/10/12 11:09:13;;;;;;;24.55;11.07;;;;;;;17.53;61.13;101755.47;6277734;22;20030;-65
2022/10/12 11:11:42;;;;;;;30.08;12.00;;;;;;;17.60;61.41;101761.34;6249719;22;20019;-64
2022/10/12 11:14:18;;;;;;;50.47;18.38;;;;;;;17.23;61.63;101766.84;6276577;22;20027;-65
2022/10/12 11:16:50;;;;;;;22.30;10.95;;;;;;;16.96;62.88;101767.25;6224103;22;20497;-64
2022/10/12 11:19:35;;;;;;;26.15;11.50;;;;;;;16.97;62.74;101761.38;6277096;22;20020;-65
2022/10/12 11:22:07;;;;;;;23.73;10.63;;;;;;;17.22;62.41;101754.09;6250533;22;20031;-65
2022/10/12 11:25:19;;;;;;;33.05;12.75;;;;;;;17.48;61.41;101752.06;6250361;22;20030;-65
2022/10/12 11:27:46;;;;;;;29.98;14.15;;;;;;;17.35;61.72;101755.81;6098243;23;20017;-65
2022/10/12 11:30:22;;;;;;;36.55;14.65;;;;;;;17.71;61.55;101743.06;6051180;23;20017;-65
2022/10/12 11:33:03;;;;;;;32.65;13.27;;;;;;;17.73;60.82;101735.19;6212562;22;20070;-67
2022/10/12 11:35:35;;;;;;;28.52;13.63;;;;;;;17.58;61.88;101740.53;6249940;22;20702;-65
2022/10/12 11:38:24;;;;;;;106.75;35.08;;;;;;;18.11;61.87;101742.66;6248563;22;20019;-65